Time;durP1;ratioP1;P1;durP2;ratioP2;P2;SDS_P1;SDS_P2;PMS_P1;PMS_P2;Temp;Humidity;BMP_temperature;BMP_pressure;BME280_temperature;BME280_humidity;BME280_pressure;Samples;Min_cycle;Max_cycle;Signal;HPM_P1;HPM_P2
2022/01/20 00:00:29;;;;;;;22.38;3.20;;;3.70;99.90;;;;;;5033081;28;20049;-80
2022/01/20 00:03:00;;;;;;;21.38;3.25;;;3.70;99.90;;;;;;5016686;28;20037;-80
2022/01/20 00:27:29;;;;;;;22.58;3.55;;;3.80;99.90;;;;;;5017799;28;20045;-80
2022/01/20 00:32:27;;;;;;;22.83;3.85;;;3.70;99.90;;;;;;5032610;28;20052;-80
2022/01/20 00:37:22;;;;;;;25.80;3.63;;;4.00;99.90;;;;;;5032701;28;20382;-81
2022/01/20 00:39:48;;;;;;;26.52;3.60;;;3.70;99.90;;;;;;5032888;28;20510;-81
2022/01/20 00:42:15;;;;;;;19.67;3.40;;;3.80;99.90;;;;;;5031455;28;20038;-81
2022/01/20 00:44:42;;;;;;;20.55;3.28;;;3.80;99.90;;;;;;5032473;28;20049;-81
2022/01/20 00:47:08;;;;;;;19.60;3.08;;;3.90;99.90;;;;;;4999483;28;20168;-81
2022/01/20 00:49:34;;;;;;;21.17;3.13;;;3.80;99.90;;;;;;5016024;28;20124;-81
2022/01/20 00:52:00;;;;;;;20.08;2.80;;;3.80;99.90;;;;;;5015899;28;20150;-81
2022/01/20 00:54:26;;;;;;;22.67;3.00;;;3.80;99.90;;;;;;5032368;28;20083;-81
2022/01/20 00:56:52;;;;;;;18.13;3.03;;;3.90;99.90;;;;;;5014752;28;20072;-81
2022/01/20 00:59:17;;;;;;;17.02;2.97;;;3.90;99.90;;;;;;5032041;28;20057;-81
2022/01/20 01:01:43;;;;;;;20.73;3.30;;;3.80;99.90;;;;;;5015509;28;20053;-81
2022/01/20 01:04:09;;;;;;;18.85;3.03;;;3.80;99.90;;;;;;5032149;28;20091;-81
2022/01/20 01:07:21;;;;;;;18.45;2.80;;;3.80;99.90;;;;;;5015574;28;20041;-80
2022/01/20 01:09:26;;;;;;;20.23;3.13;;;3.80;99.90;;;;;;5028397;28;20044;-80
2022/01/20 01:11:57;;;;;;;16.73;2.90;;;3.70;99.90;;;;;;4997924;28;20037;-80
2022/01/20 01:14:24;;;;;;;16.85;2.33;;;3.70;99.90;;;;;;5000281;28;20041;-80
2022/01/20 01:22:20;;;;;;;17.33;2.75;;;3.60;99.90;;;;;;5031636;28;20100;-80
2022/01/20 01:24:50;;;;;;;14.95;2.53;;;3.60;99.90;;;;;;5015440;28;20128;-80
2022/01/20 01:27:18;;;;;;;19.63;2.78;;;3.80;99.90;;;;;;5014709;28;20068;-80
2022/01/20 01:32:47;;;;;;;14.60;2.38;;;3.60;99.90;;;;;;5031737;28;20055;-80
2022/01/20 01:35:14;;;;;;;15.20;2.35;;;3.90;99.90;;;;;;5001499;28;20124;-80
2022/01/20 01:40:11;;;;;;;15.63;2.63;;;3.50;99.90;;;;;;5015478;28;20100;-80
2022/01/20 01:42:47;;;;;;;16.90;2.42;;;3.60;99.90;;;;;;5014686;28;20048;-80
2022/01/20 01:45:16;;;;;;;13.48;2.35;;;3.60;99.90;;;;;;5031716;28;20038;-80
2022/01/20 01:47:43;;;;;;;15.25;2.33;;;3.60;99.90;;;;;;5015441;28;20485;-80
2022/01/20 01:50:09;;;;;;;15.65;2.40;;;3.60;99.90;;;;;;5015136;28;20037;-80
2022/01/20 01:52:35;;;;;;;19.50;2.90;;;3.60;99.90;;;;;;5015006;28;20107;-80
2022/01/20 01:55:01;;;;;;;16.30;2.38;;;3.70;99.90;;;;;;5015156;28;20048;-80
2022/01/20 01:57:27;;;;;;;17.17;2.45;;;3.90;99.90;;;;;;5013902;28;20069;-80
2022/01/20 01:59:54;;;;;;;19.02;2.25;;;3.80;99.90;;;;;;5015123;28;20072;-80
2022/01/20 02:02:20;;;;;;;14.02;2.20;;;4.30;99.90;;;;;;5014836;28;20107;-80
2022/01/20 02:04:48;;;;;;;13.85;2.10;;;3.90;99.90;;;;;;5015097;28;20065;-80
2022/01/20 02:20:44;;;;;;;11.32;2.00;;;3.60;99.90;;;;;;4991186;28;20092;-80
2022/01/20 02:23:10;;;;;;;11.95;1.90;;;3.70;99.90;;;;;;5015389;28;20501;-80
2022/01/20 02:25:37;;;;;;;13.95;1.90;;;3.60;99.90;;;;;;5033911;28;20041;-80
2022/01/20 02:28:05;;;;;;;12.55;1.90;;;3.60;99.90;;;;;;5034995;28;20068;-80
2022/01/20 02:30:33;;;;;;;10.48;1.70;;;3.50;99.90;;;;;;5034724;28;20087;-80
2022/01/20 02:33:02;;;;;;;12.25;1.98;;;3.50;99.90;;;;;;5034993;28;20045;-80
2022/01/20 02:35:31;;;;;;;12.98;2.10;;;3.60;99.90;;;;;;5034976;28;20038;-80
2022/01/20 02:38:04;;;;;;;11.18;1.63;;;3.50;99.90;;;;;;5035159;28;20040;-80
2022/01/20 02:45:45;;;;;;;12.30;1.58;;;3.70;99.90;;;;;;5034592;28;20049;-81
2022/01/20 02:48:12;;;;;;;13.10;1.83;;;3.70;99.90;;;;;;5034726;28;20037;-81
2022/01/20 02:50:38;;;;;;;10.85;1.67;;;3.70;99.90;;;;;;5018115;28;20041;-81
2022/01/20 02:53:04;;;;;;;13.98;2.30;;;3.70;99.90;;;;;;5034618;28;20048;-81
2022/01/20 02:55:29;;;;;;;10.15;1.83;;;3.70;99.90;;;;;;5010817;28;20049;-81
2022/01/20 02:57:55;;;;;;;12.15;2.00;;;3.70;99.90;;;;;;5017832;28;20049;-81
2022/01/20 03:00:21;;;;;;;9.40;1.80;;;3.70;99.90;;;;;;5018224;28;20094;-81
2022/01/20 03:02:48;;;;;;;9.85;1.63;;;4.20;99.90;;;;;;5017911;28;20041;-81
2022/01/20 03:05:13;;;;;;;13.20;2.10;;;3.70;99.90;;;;;;5017960;28;20138;-81
2022/01/20 03:07:39;;;;;;;11.30;1.65;;;4.00;99.90;;;;;;5034557;28;20092;-81
2022/01/20 03:10:07;;;;;;;10.82;1.60;;;3.60;99.90;;;;;;5017703;28;20038;-81
2022/01/20 03:12:33;;;;;;;9.95;1.67;;;3.50;99.90;;;;;;5017097;28;20038;-81
2022/01/20 03:14:58;;;;;;;10.80;1.63;;;3.40;99.90;;;;;;5034111;28;20045;-81
2022/01/20 03:17:25;;;;;;;13.32;2.10;;;3.50;99.90;;;;;;5033932;28;20045;-81
2022/01/20 03:19:50;;;;;;;10.02;1.63;;;3.40;99.90;;;;;;5034212;28;20049;-81
2022/01/20 03:22:16;;;;;;;14.32;1.88;;;3.40;99.90;;;;;;5033845;28;20041;-81
2022/01/20 03:24:42;;;;;;;14.48;2.47;;;3.40;99.90;;;;;;5017867;28;20481;-81
2022/01/20 03:27:08;;;;;;;10.48;1.90;;;3.30;99.90;;;;;;5016483;28;20072;-81
2022/01/20 03:29:34;;;;;;;14.98;2.53;;;3.70;99.90;;;;;;5033759;28;20091;-81
2022/01/20 03:32:00;;;;;;;17.27;2.83;;;3.30;99.90;;;;;;5017036;28;20045;-81
2022/01/20 03:34:26;;;;;;;13.90;2.30;;;3.30;99.90;;;;;;5000734;28;20543;-81
2022/01/20 03:36:52;;;;;;;19.80;2.58;;;3.30;99.90;;;;;;5033541;28;20045;-81
2022/01/20 03:39:18;;;;;;;17.73;2.72;;;3.30;99.90;;;;;;5000979;28;20046;-81
2022/01/20 03:41:44;;;;;;;18.75;3.03;;;3.30;99.90;;;;;;5016329;28;20524;-81
2022/01/20 03:44:10;;;;;;;17.10;2.67;;;3.30;99.90;;;;;;5017215;28;20091;-81
2022/01/20 03:46:36;;;;;;;19.88;2.85;;;4.10;99.90;;;;;;5000663;28;20094;-81
2022/01/20 03:49:09;;;;;;;17.75;3.20;;;3.30;99.90;;;;;;5017063;28;20033;-81
2022/01/20 03:51:35;;;;;;;16.38;2.83;;;3.50;99.90;;;;;;5017995;28;20511;-81
2022/01/20 03:54:03;;;;;;;19.25;3.33;;;3.30;99.90;;;;;;5033589;28;20037;-81
2022/01/20 03:56:29;;;;;;;22.55;3.65;;;4.00;99.90;;;;;;5016367;28;20040;-82
2022/01/20 03:58:55;;;;;;;19.02;3.15;;;3.40;99.90;;;;;;5033052;28;20061;-82
2022/01/20 04:01:22;;;;;;;17.58;3.08;;;3.50;99.90;;;;;;5016847;28;20095;-82
2022/01/20 04:03:48;;;;;;;19.25;3.35;;;3.40;99.90;;;;;;5016861;28;20124;-81
2022/01/20 04:06:14;;;;;;;26.30;3.90;;;3.50;99.90;;;;;;5000199;28;20125;-81
2022/01/20 04:08:43;;;;;;;22.42;3.45;;;3.80;99.90;;;;;;5000381;28;20038;-81
2022/01/20 04:11:23;;;;;;;21.80;3.78;;;3.60;99.90;;;;;;5032423;28;20037;-81
2022/01/20 04:13:50;;;;;;;22.88;4.25;;;3.40;99.90;;;;;;5016632;28;20041;-81
2022/01/20 04:16:32;;;;;;;24.48;4.05;;;3.40;99.90;;;;;;5016331;28;20043;-81
2022/01/20 04:18:59;;;;;;;22.63;3.83;;;3.40;99.90;;;;;;5016618;28;20064;-81
2022/01/20 04:21:28;;;;;;;22.42;3.85;;;3.30;99.90;;;;;;5016693;28;20374;-81
2022/01/20 04:23:54;;;;;;;21.52;3.58;;;4.20;99.90;;;;;;5032851;28;20044;-81
2022/01/20 04:26:21;;;;;;;22.85;3.50;;;3.30;99.90;;;;;;5015578;28;20045;-81
2022/01/20 04:28:48;;;;;;;21.15;3.55;;;3.30;99.90;;;;;;5032782;28;20041;-81
2022/01/20 04:31:14;;;;;;;17.40;3.53;;;3.30;99.90;;;;;;5016178;28;20033;-81
2022/01/20 04:33:40;;;;;;;14.38;2.70;;;3.30;99.90;;;;;;5032587;28;20048;-81
2022/01/20 04:36:07;;;;;;;13.63;3.40;;;3.30;99.90;;;;;;5016045;28;20041;-81
2022/01/20 04:38:33;;;;;;;19.95;3.08;;;3.30;99.90;;;;;;5016257;28;20045;-81
2022/01/20 04:40:59;;;;;;;13.85;3.10;;;3.30;99.90;;;;;;4998861;28;20124;-81
2022/01/20 04:43:26;;;;;;;18.13;3.28;;;3.30;99.90;;;;;;5015939;28;20057;-81
2022/01/20 04:46:01;;;;;;;16.27;3.28;;;3.20;99.90;;;;;;4999215;28;20374;-81
2022/01/20 04:49:03;;;;;;;16.00;3.08;;;3.20;99.90;;;;;;5017660;28;20401;-81
2022/01/20 04:57:16;;;;;;;13.55;2.78;;;3.10;99.90;;;;;;5031293;28;20045;-81
2022/01/20 04:59:43;;;;;;;16.70;2.75;;;3.50;99.90;;;;;;5032225;28;20056;-81
2022/01/20 05:02:09;;;;;;;13.35;2.90;;;3.00;99.90;;;;;;5015512;28;20122;-81
2022/01/20 05:04:36;;;;;;;18.88;2.83;;;3.00;99.90;;;;;;5032194;28;20037;-81
2022/01/20 05:07:02;;;;;;;14.82;2.60;;;3.10;99.90;;;;;;5015604;28;20041;-81
2022/01/20 05:09:28;;;;;;;16.30;2.70;;;3.00;99.90;;;;;;4999375;28;20037;-81
2022/01/20 05:12:01;;;;;;;17.85;2.75;;;3.00;99.90;;;;;;5031017;28;20133;-81
2022/01/20 05:14:27;;;;;;;12.68;2.72;;;3.00;99.90;;;;;;5032078;28;20115;-81
2022/01/20 05:16:55;;;;;;;14.48;2.75;;;2.90;99.90;;;;;;5032104;28;20485;-82
2022/01/20 05:19:26;;;;;;;13.07;2.60;;;2.90;99.90;;;;;;4999481;28;20112;-81
2022/01/20 05:21:52;;;;;;;18.73;2.72;;;2.90;99.90;;;;;;5031973;28;20041;-81
2022/01/20 05:24:18;;;;;;;13.65;2.25;;;2.80;99.90;;;;;;4999245;28;20081;-81
2022/01/20 05:26:44;;;;;;;14.27;2.60;;;2.70;99.90;;;;;;5014300;28;20076;-81
2022/01/20 05:29:09;;;;;;;13.88;2.70;;;2.70;99.90;;;;;;5031907;28;20048;-81
2022/01/20 05:31:35;;;;;;;13.68;2.60;;;2.80;99.90;;;;;;5015173;28;20523;-81
2022/01/20 05:34:01;;;;;;;12.43;2.45;;;2.80;99.90;;;;;;4999168;28;20478;-81
2022/01/20 05:36:27;;;;;;;15.35;2.88;;;3.50;99.90;;;;;;5015163;28;20073;-81
2022/01/20 05:38:53;;;;;;;13.25;2.75;;;2.70;99.90;;;;;;5014642;28;20091;-81
2022/01/20 05:41:19;;;;;;;14.77;2.90;;;2.70;99.90;;;;;;5014174;28;20037;-81
2022/01/20 05:43:45;;;;;;;13.88;2.70;;;2.70;99.90;;;;;;5031764;28;20049;-81
2022/01/20 05:46:13;;;;;;;13.80;2.65;;;2.70;99.90;;;;;;5031482;28;20046;-81
2022/01/20 05:48:46;;;;;;;16.65;2.80;;;2.70;99.90;;;;;;5015235;28;20038;-81
2022/01/20 05:51:12;;;;;;;14.82;2.70;;;2.70;99.90;;;;;;5015277;28;20432;-81
2022/01/20 05:53:38;;;;;;;14.18;2.70;;;2.70;99.90;;;;;;5029681;28;20504;-81
2022/01/20 05:56:04;;;;;;;12.32;2.33;;;2.80;99.90;;;;;;4994441;28;20041;-81
2022/01/20 05:58:30;;;;;;;14.27;2.30;;;2.80;99.90;;;;;;5020588;28;20057;-81
2022/01/20 06:00:57;;;;;;;13.10;2.35;;;2.90;99.90;;;;;;5018858;28;20045;-81
2022/01/20 06:03:37;;;;;;;11.15;2.25;;;3.20;99.90;;;;;;5035582;28;20057;-81
2022/01/20 06:06:11;;;;;;;8.75;2.00;;;2.80;99.90;;;;;;5004551;28;20033;-81
2022/01/20 06:08:39;;;;;;;8.73;1.90;;;2.70;99.90;;;;;;5019203;28;20033;-81
2022/01/20 06:11:05;;;;;;;11.23;2.00;;;2.70;99.90;;;;;;5017884;28;20048;-81
2022/01/20 06:13:31;;;;;;;9.60;2.05;;;2.80;99.90;;;;;;5018830;28;20041;-81
2022/01/20 06:15:57;;;;;;;10.77;2.10;;;2.60;99.90;;;;;;5035395;28;20046;-81
2022/01/20 06:18:23;;;;;;;10.55;1.83;;;2.60;99.90;;;;;;5030513;28;20041;-81
2022/01/20 06:20:50;;;;;;;12.93;2.38;;;2.50;99.90;;;;;;5017810;28;20041;-81
2022/01/20 06:23:17;;;;;;;10.25;1.90;;;2.50;99.90;;;;;;5018637;28;20045;-81
2022/01/20 06:25:43;;;;;;;9.77;1.90;;;2.50;99.90;;;;;;5017838;28;20812;-81
2022/01/20 06:28:10;;;;;;;12.02;2.17;;;2.40;99.90;;;;;;5034882;28;20037;-81
2022/01/20 06:30:36;;;;;;;13.07;2.35;;;2.50;99.90;;;;;;5034379;28;20044;-81
2022/01/20 06:33:03;;;;;;;11.77;2.40;;;2.30;99.90;;;;;;5034765;28;20037;-81
2022/01/20 06:35:30;;;;;;;13.93;2.70;;;2.30;99.90;;;;;;5018258;28;20041;-81
2022/01/20 06:37:55;;;;;;;14.23;2.50;;;2.30;99.90;;;;;;5014793;28;20073;-81
2022/01/20 06:40:22;;;;;;;15.30;2.58;;;2.70;99.90;;;;;;4999692;28;20635;-81
2022/01/20 06:42:47;;;;;;;13.60;2.85;;;2.30;99.90;;;;;;5015196;28;20128;-81
2022/01/20 06:45:15;;;;;;;13.27;2.60;;;2.30;99.90;;;;;;5034248;28;20120;-81
2022/01/20 06:47:40;;;;;;;15.90;2.80;;;2.30;99.90;;;;;;5031539;28;20065;-81
2022/01/20 06:50:08;;;;;;;11.88;2.47;;;2.90;99.90;;;;;;5030164;28;20119;-81
2022/01/20 06:52:35;;;;;;;13.93;2.63;;;2.30;99.90;;;;;;5017149;28;20040;-80
2022/01/20 06:55:05;;;;;;;17.00;2.70;;;2.30;99.90;;;;;;5017465;28;20107;-80
2022/01/20 06:57:32;;;;;;;18.63;2.90;;;2.20;99.90;;;;;;5015097;28;20524;-80
2022/01/20 06:59:59;;;;;;;14.65;2.70;;;2.20;99.90;;;;;;5017585;28;20076;-80
2022/01/20 07:02:24;;;;;;;14.23;2.80;;;2.20;99.90;;;;;;5033801;28;20041;-80
2022/01/20 07:04:51;;;;;;;18.48;2.92;;;2.20;99.90;;;;;;5033775;28;20045;-80
2022/01/20 07:07:17;;;;;;;15.48;2.70;;;2.20;99.90;;;;;;5017424;28;20037;-80
2022/01/20 07:09:44;;;;;;;16.98;5.68;;;2.30;99.90;;;;;;5032955;28;20033;-80
2022/01/20 07:12:11;;;;;;;15.88;4.03;;;2.40;99.90;;;;;;5032881;28;20493;-80
2022/01/20 07:14:38;;;;;;;13.38;2.80;;;2.40;99.90;;;;;;5033551;28;20095;-80
2022/01/20 07:17:04;;;;;;;13.40;2.80;;;2.30;99.90;;;;;;5017265;28;20481;-80
2022/01/20 07:19:31;;;;;;;19.95;3.00;;;2.30;99.90;;;;;;5017173;28;20038;-80
2022/01/20 07:21:56;;;;;;;14.20;2.70;;;2.90;99.90;;;;;;5012778;28;20492;-80
2022/01/20 07:24:22;;;;;;;14.63;2.55;;;2.20;99.90;;;;;;5033422;28;20029;-80
2022/01/20 07:26:48;;;;;;;13.15;2.60;;;2.20;99.90;;;;;;5016160;28;20413;-80
2022/01/20 07:29:14;;;;;;;16.60;4.85;;;2.10;99.90;;;;;;5001119;28;20043;-80
2022/01/20 07:31:40;;;;;;;15.68;2.75;;;2.80;99.90;;;;;;5032487;28;20040;-80
2022/01/20 07:34:06;;;;;;;11.77;2.42;;;2.10;99.90;;;;;;4997494;28;20034;-80
2022/01/20 07:36:32;;;;;;;15.93;3.58;;;2.10;99.90;;;;;;5013424;28;20084;-80
2022/01/20 07:38:57;;;;;;;16.70;2.78;;;2.00;99.90;;;;;;5002777;28;20030;-80
2022/01/20 07:41:23;;;;;;;14.40;2.88;;;2.00;99.90;;;;;;5015656;28;20099;-80
2022/01/20 07:43:49;;;;;;;11.88;2.80;;;2.50;99.90;;;;;;5016500;28;20124;-80
2022/01/20 07:46:14;;;;;;;13.30;2.80;;;2.00;99.90;;;;;;5032940;28;20095;-80
2022/01/20 07:48:40;;;;;;;15.23;2.80;;;2.00;99.90;;;;;;5016511;28;20432;-80
2022/01/20 07:51:06;;;;;;;19.10;3.13;;;2.70;99.90;;;;;;5032790;28;20034;-80
2022/01/20 07:53:36;;;;;;;14.68;2.83;;;2.10;99.90;;;;;;5016723;28;20124;-80
2022/01/20 07:56:03;;;;;;;15.68;2.65;;;2.00;99.90;;;;;;5015545;28;20472;-80
2022/01/20 07:58:29;;;;;;;15.18;2.63;;;2.10;99.90;;;;;;5032598;28;20046;-80
2022/01/20 08:00:54;;;;;;;18.17;2.97;;;2.10;99.90;;;;;;5032206;28;20575;-80
2022/01/20 08:03:20;;;;;;;13.02;2.85;;;2.10;99.90;;;;;;5016118;28;20094;-80
2022/01/20 08:05:46;;;;;;;13.82;2.45;;;2.10;99.90;;;;;;5030415;28;20034;-80
2022/01/20 08:08:12;;;;;;;12.23;2.55;;;2.20;99.90;;;;;;5032686;28;20044;-80
2022/01/20 08:10:38;;;;;;;12.20;2.45;;;2.30;99.90;;;;;;5026084;28;20033;-80
2022/01/20 08:13:04;;;;;;;13.52;2.55;;;2.20;99.90;;;;;;5016370;28;20040;-80
2022/01/20 08:15:29;;;;;;;13.98;2.40;;;2.20;99.90;;;;;;5015996;28;20048;-80
2022/01/20 08:17:55;;;;;;;14.95;2.72;;;2.20;99.90;;;;;;5016270;28;20037;-80
2022/01/20 08:20:21;;;;;;;14.13;2.60;;;2.20;99.90;;;;;;5044852;28;20108;-80
2022/01/20 08:22:47;;;;;;;13.82;2.63;;;2.20;99.90;;;;;;5023458;28;20593;-80
2022/01/20 08:25:16;;;;;;;16.88;2.78;;;2.30;99.90;;;;;;5013437;28;20030;-80
2022/01/20 08:27:44;;;;;;;13.68;2.80;;;2.40;99.90;;;;;;5031442;28;20036;-80
2022/01/20 08:30:12;;;;;;;14.68;2.47;;;3.10;99.90;;;;;;5031820;28;20076;-80
2022/01/20 08:32:39;;;;;;;10.82;2.30;;;2.40;99.90;;;;;;5009786;28;20088;-80
2022/01/20 08:35:08;;;;;;;10.10;2.30;;;2.40;99.90;;;;;;4996400;28;20536;-81
2022/01/20 08:37:40;;;;;;;12.77;2.22;;;2.40;99.90;;;;;;5028908;28;20541;-81
2022/01/20 08:40:13;;;;;;;11.98;1.92;;;2.40;99.90;;;;;;4996904;28;20040;-81
2022/01/20 08:42:41;;;;;;;9.95;2.22;;;2.40;99.90;;;;;;4995400;28;20041;-81
2022/01/20 08:45:10;;;;;;;11.55;2.38;;;2.40;99.90;;;;;;5028877;28;20383;-81
2022/01/20 08:47:36;;;;;;;12.85;2.45;;;2.40;99.90;;;;;;5000490;28;20468;-81
2022/01/20 08:50:03;;;;;;;13.85;2.30;;;2.60;99.90;;;;;;4998652;28;20044;-82
2022/01/20 08:52:29;;;;;;;12.82;2.50;;;2.60;99.90;;;;;;5015909;28;20045;-81
2022/01/20 08:54:57;;;;;;;14.52;2.38;;;2.60;99.90;;;;;;4983919;28;20052;-81
2022/01/20 08:57:26;;;;;;;15.93;2.65;;;2.60;99.90;;;;;;5017835;28;20147;-80
2022/01/20 08:59:53;;;;;;;15.93;2.70;;;2.50;99.90;;;;;;5019448;28;20554;-80
2022/01/20 09:02:19;;;;;;;11.95;2.70;;;2.50;99.90;;;;;;5035064;28;20033;-80
2022/01/20 09:04:44;;;;;;;15.18;3.08;;;2.50;99.90;;;;;;5035530;28;20135;-80
2022/01/20 09:07:10;;;;;;;15.40;2.85;;;3.10;99.90;;;;;;5019192;28;20039;-80
2022/01/20 09:09:42;;;;;;;16.30;3.67;;;3.40;99.90;;;;;;5035384;28;20062;-80
2022/01/20 09:17:27;;;;;;;16.40;2.97;;;3.30;99.90;;;;;;5035316;28;20520;-80
2022/01/20 09:19:53;;;;;;;17.02;3.47;;;3.40;99.90;;;;;;5035476;28;20485;-80
2022/01/20 09:22:20;;;;;;;18.15;3.15;;;3.60;99.90;;;;;;5018238;28;20094;-80
2022/01/20 09:24:46;;;;;;;17.98;3.13;;;3.50;99.90;;;;;;5015073;28;20116;-80
2022/01/20 09:27:13;;;;;;;11.93;2.60;;;3.60;99.90;;;;;;5017746;28;20412;-80
2022/01/20 09:29:40;;;;;;;16.23;3.00;;;3.70;99.90;;;;;;5018978;28;20033;-80
2022/01/20 09:32:09;;;;;;;15.85;2.95;;;3.90;99.90;;;;;;5034062;28;20077;-80
2022/01/20 09:34:35;;;;;;;12.10;1.90;;;3.80;99.90;;;;;;5034853;28;20040;-80
2022/01/20 09:37:01;;;;;;;10.57;2.13;;;3.60;99.90;;;;;;5018511;28;20040;-80
2022/01/20 09:39:27;;;;;;;9.93;2.25;;;3.50;99.90;;;;;;5018388;28;20044;-80
2022/01/20 09:41:53;;;;;;;11.57;2.25;;;3.30;99.90;;;;;;5034022;28;20516;-80
2022/01/20 09:44:19;;;;;;;12.07;2.08;;;3.20;99.90;;;;;;5035105;28;20449;-80
2022/01/20 09:46:46;;;;;;;11.10;2.35;;;3.10;99.90;;;;;;5018220;28;20033;-80
2022/01/20 09:49:13;;;;;;;12.25;2.30;;;3.20;99.90;;;;;;5018575;28;20480;-80
2022/01/20 09:51:41;;;;;;;13.52;2.60;;;3.20;99.90;;;;;;5018312;28;20484;-80
2022/01/20 09:54:07;;;;;;;12.25;2.40;;;3.30;99.90;;;;;;5034944;28;20060;-80
2022/01/20 09:56:33;;;;;;;11.32;2.15;;;3.50;99.90;;;;;;5017853;28;20520;-80
2022/01/20 09:58:59;;;;;;;9.90;2.50;;;3.70;99.90;;;;;;5018084;28;20091;-81
2022/01/20 10:01:46;;;;;;;11.57;2.25;;;3.60;99.90;;;;;;5000877;28;20041;-81
2022/01/20 10:04:25;;;;;;;10.27;2.10;;;3.60;99.90;;;;;;5018462;28;20500;-81
2022/01/20 10:07:01;;;;;;;12.13;3.03;;;3.50;99.90;;;;;;5018181;28;20036;-80
2022/01/20 10:09:49;;;;;;;6.95;2.22;;;3.40;99.90;;;;;;5034822;28;20071;-80
2022/01/20 10:12:17;;;;;;;10.88;2.40;;;3.80;99.90;;;;;;5033529;28;20076;-80
2022/01/20 10:14:45;;;;;;;10.15;2.10;;;3.40;99.90;;;;;;5018414;28;20040;-80
2022/01/20 10:17:18;;;;;;;12.60;3.47;;;3.40;99.90;;;;;;5018088;28;20399;-80
2022/01/20 10:19:44;;;;;;;15.65;3.28;;;3.30;99.90;;;;;;5034410;28;20045;-80
2022/01/20 10:22:15;;;;;;;18.02;5.07;;;3.20;99.90;;;;;;5001972;28;20064;-80
2022/01/20 10:24:41;;;;;;;17.25;4.28;;;3.30;99.90;;;;;;5018599;28;20103;-80
2022/01/20 10:27:13;;;;;;;13.95;4.00;;;3.40;99.90;;;;;;5017152;28;20069;-80
2022/01/20 10:29:39;;;;;;;13.23;2.63;;;3.60;99.90;;;;;;5034613;28;20128;-80
2022/01/20 10:32:05;;;;;;;10.82;2.67;;;3.80;99.90;;;;;;5017936;28;20501;-80
2022/01/20 10:34:35;;;;;;;20.17;3.00;;;3.80;99.90;;;;;;5033532;28;20037;-80
2022/01/20 10:37:13;;;;;;;13.07;2.90;;;3.90;99.90;;;;;;5033495;28;20037;-80
2022/01/20 10:39:44;;;;;;;13.60;2.53;;;4.00;99.90;;;;;;5034711;28;20485;-80
2022/01/20 10:42:13;;;;;;;15.32;4.75;;;4.10;99.90;;;;;;5017009;28;20036;-80
2022/01/20 10:44:56;;;;;;;12.40;2.67;;;4.20;99.90;;;;;;5035784;28;20045;-80
2022/01/20 10:47:24;;;;;;;13.68;2.50;;;4.30;99.90;;;;;;5021160;28;20041;-80
2022/01/20 10:49:51;;;;;;;11.88;2.47;;;4.40;99.90;;;;;;5038132;28;20037;-80
2022/01/20 10:52:20;;;;;;;14.75;2.65;;;4.40;99.90;;;;;;5037652;28;20041;-80
2022/01/20 10:54:54;;;;;;;13.18;2.60;;;4.40;99.90;;;;;;5037798;28;20045;-80
2022/01/20 10:57:32;;;;;;;12.00;2.55;;;4.40;99.90;;;;;;5036760;28;20044;-80
2022/01/20 11:00:19;;;;;;;13.02;2.40;;;4.40;99.90;;;;;;5037809;28;20135;-80
2022/01/20 11:02:55;;;;;;;14.68;2.70;;;4.40;99.90;;;;;;5037885;28;20033;-80
2022/01/20 11:05:21;;;;;;;12.15;2.50;;;4.50;99.90;;;;;;5037697;28;20401;-80
2022/01/20 11:07:48;;;;;;;12.38;2.60;;;4.60;99.90;;;;;;5005178;28;20443;-80
2022/01/20 11:10:16;;;;;;;14.57;2.75;;;4.50;99.90;;;;;;5037839;28;20168;-80
2022/01/20 11:12:42;;;;;;;13.60;2.47;;;4.50;99.90;;;;;;5037082;28;20338;-80
2022/01/20 11:15:11;;;;;;;13.23;2.88;;;4.60;99.90;;;;;;5004808;28;20063;-80
2022/01/20 11:17:40;;;;;;;14.30;3.03;;;4.50;99.90;;;;;;5037374;28;20119;-80
2022/01/20 11:20:15;;;;;;;11.60;2.40;;;4.40;99.90;;;;;;5021170;28;20070;-80
2022/01/20 11:23:05;;;;;;;12.00;2.60;;;4.40;99.90;;;;;;5037261;28;20120;-80
2022/01/20 11:25:35;;;;;;;12.55;2.35;;;4.20;99.90;;;;;;5036389;28;20036;-80
2022/01/20 11:28:08;;;;;;;12.13;2.13;;;4.20;99.90;;;;;;5037496;28;20512;-80
2022/01/20 11:30:42;;;;;;;15.07;2.50;;;4.30;99.90;;;;;;5036958;28;20040;-80
2022/01/20 11:33:18;;;;;;;14.07;2.35;;;4.30;99.90;;;;;;5037531;28;20053;-80
2022/01/20 11:35:48;;;;;;;14.05;2.67;;;4.30;99.90;;;;;;5021281;28;20048;-80
2022/01/20 11:38:19;;;;;;;11.27;2.35;;;4.40;99.90;;;;;;5020426;28;20048;-80
2022/01/20 11:40:57;;;;;;;11.55;2.50;;;4.40;99.90;;;;;;5019765;28;20560;-80
2022/01/20 11:43:37;;;;;;;17.05;2.80;;;4.40;99.90;;;;;;5004279;28;20567;-80
2022/01/20 11:46:13;;;;;;;11.85;2.55;;;4.50;99.90;;;;;;5037030;28;20401;-80
2022/01/20 11:48:53;;;;;;;9.63;1.95;;;4.60;99.90;;;;;;5020733;28;20426;-80
2022/01/20 11:51:20;;;;;;;13.18;2.58;;;4.50;99.90;;;;;;5036493;28;20041;-80
2022/01/20 11:53:57;;;;;;;10.25;2.40;;;4.50;99.90;;;;;;5003986;28;20153;-80
2022/01/20 11:56:36;;;;;;;12.82;2.95;;;4.40;99.90;;;;;;5032263;28;20369;-81
2022/01/20 11:59:07;;;;;;;14.63;2.67;;;4.30;99.90;;;;;;5033920;28;20052;-81
2022/01/20 12:01:45;;;;;;;12.98;2.78;;;3.80;99.90;;;;;;5033359;28;20049;-81
2022/01/20 12:04:11;;;;;;;12.48;2.70;;;3.60;99.90;;;;;;5000404;28;20048;-81
2022/01/20 12:06:42;;;;;;;12.70;2.45;;;3.50;99.90;;;;;;5000229;28;20045;-81
2022/01/20 12:09:07;;;;;;;13.35;3.30;;;4.20;99.90;;;;;;5013989;28;20467;-81
2022/01/20 12:11:41;;;;;;;12.93;3.50;;;3.60;99.90;;;;;;5034819;28;20120;-81
2022/01/20 12:14:07;;;;;;;17.85;3.92;;;3.70;99.90;;;;;;5017571;28;20045;-81
2022/01/20 12:16:35;;;;;;;19.35;3.35;;;3.80;99.90;;;;;;5035485;28;20123;-81
2022/01/20 12:19:01;;;;;;;17.08;3.22;;;3.90;99.90;;;;;;5004961;28;20116;-81
2022/01/20 12:21:30;;;;;;;16.30;2.92;;;3.90;99.90;;;;;;5032963;28;20028;-81
2022/01/20 12:23:57;;;;;;;11.15;2.20;;;3.80;99.90;;;;;;5019073;28;20055;-81
2022/01/20 12:26:24;;;;;;;9.38;1.90;;;3.70;99.90;;;;;;5033513;28;20474;-81
2022/01/20 12:29:05;;;;;;;10.77;2.78;;;3.50;99.90;;;;;;5019257;28;20554;-81
2022/01/20 12:31:31;;;;;;;11.32;2.00;;;3.40;99.90;;;;;;5035527;28;20527;-81
2022/01/20 12:33:57;;;;;;;7.85;1.55;;;3.30;99.90;;;;;;5032632;28;20061;-81
2022/01/20 12:36:23;;;;;;;7.25;1.63;;;3.30;99.90;;;;;;5019100;28;20041;-81
2022/01/20 12:38:51;;;;;;;9.60;1.85;;;3.20;99.90;;;;;;5035215;28;20047;-81
2022/01/20 12:41:25;;;;;;;6.38;1.52;;;3.30;99.90;;;;;;5034002;28;20094;-81
2022/01/20 12:43:58;;;;;;;10.50;1.98;;;3.40;99.90;;;;;;5035851;28;20401;-81
2022/01/20 12:46:29;;;;;;;10.10;1.67;;;3.50;99.90;;;;;;5019203;28;20041;-81
2022/01/20 12:48:57;;;;;;;9.27;1.58;;;4.00;99.90;;;;;;5017841;28;20033;-81
2022/01/20 12:51:35;;;;;;;7.93;1.75;;;3.60;99.90;;;;;;5018540;28;20428;-81
2022/01/20 12:54:17;;;;;;;12.55;2.10;;;3.60;99.90;;;;;;5032051;28;20182;-81
2022/01/20 12:56:49;;;;;;;10.32;2.08;;;3.60;99.90;;;;;;5015718;28;20428;-81
2022/01/20 12:59:38;;;;;;;13.93;2.42;;;3.60;99.90;;;;;;5013673;28;20087;-81
2022/01/20 13:02:08;;;;;;;12.23;2.15;;;3.70;99.90;;;;;;5027843;28;20106;-81
2022/01/20 13:04:36;;;;;;;14.35;2.47;;;3.70;99.90;;;;;;5012550;28;20424;-81
2022/01/20 13:07:03;;;;;;;12.15;2.40;;;3.70;99.90;;;;;;4997254;28;20033;-81
2022/01/20 13:09:46;;;;;;;13.32;2.40;;;3.80;99.90;;;;;;4996424;28;20079;-81
2022/01/20 13:12:12;;;;;;;;;;;3.80;99.90;;;;;;5012541;28;20567;-80
2022/01/20 13:14:46;;;;;;;12.38;2.15;;;3.80;99.90;;;;;;5048004;28;19925;-80
2022/01/20 13:17:23;;;;;;;13.73;2.45;;;3.90;99.90;;;;;;5015249;28;20041;-80
2022/01/20 13:19:51;;;;;;;12.25;2.35;;;4.50;99.90;;;;;;5014723;28;20077;-80
2022/01/20 13:22:29;;;;;;;12.70;2.60;;;3.90;99.90;;;;;;5014626;28;20489;-80
2022/01/20 13:25:16;;;;;;;14.85;2.40;;;4.40;99.90;;;;;;5031786;28;20053;-80
2022/01/20 13:27:58;;;;;;;15.95;3.05;;;4.00;99.90;;;;;;5014694;28;20033;-80
2022/01/20 13:30:36;;;;;;;11.68;2.17;;;4.00;99.90;;;;;;5015480;28;20448;-81
2022/01/20 13:33:18;;;;;;;14.13;2.60;;;4.00;99.90;;;;;;5032154;28;20052;-81
2022/01/20 13:35:46;;;;;;;14.18;2.70;;;4.00;99.90;;;;;;5015113;28;20040;-81
2022/01/20 13:38:13;;;;;;;16.77;2.70;;;4.10;99.90;;;;;;5014784;28;20078;-81
2022/01/20 13:40:43;;;;;;;14.05;3.05;;;3.90;99.90;;;;;;5029800;28;20045;-81
2022/01/20 13:46:04;;;;;;;17.77;3.60;;;4.00;99.90;;;;;;5031596;28;20421;-81
2022/01/20 13:48:32;;;;;;;15.43;3.28;;;4.10;99.90;;;;;;5028027;28;20042;-81
2022/01/20 13:51:02;;;;;;;18.38;3.28;;;4.10;99.90;;;;;;4995560;28;20041;-81
2022/01/20 13:53:30;;;;;;;14.57;2.75;;;4.10;99.90;;;;;;5031165;28;20033;-81
2022/01/20 13:56:00;;;;;;;16.83;3.30;;;3.90;99.90;;;;;;5013500;28;20041;-81
2022/01/20 13:58:32;;;;;;;13.95;3.33;;;3.80;99.90;;;;;;5014306;28;20046;-81
2022/01/20 14:01:01;;;;;;;17.45;3.00;;;3.70;99.90;;;;;;5011763;28;20049;-80
2022/01/20 14:03:26;;;;;;;14.20;2.67;;;3.60;99.90;;;;;;5007419;28;20046;-80
2022/01/20 14:05:55;;;;;;;12.40;2.47;;;3.60;99.90;;;;;;4996417;28;20038;-81